Time;durP1;ratioP1;P1;durP2;ratioP2;P2;SDS_P1;SDS_P2;PMS_P1;PMS_P2;Temp;Humidity;BMP_temperature;BMP_pressure;BME280_temperature;BME280_humidity;BME280_pressure;Samples;Min_cycle;Max_cycle;Signal;HPM_P1;HPM_P2
2023/05/15 00:01:29;;;;;;;;;10.75;8.50;;;;;14.27;77.90;98923.38;5038006;28;45350;-82
2023/05/15 00:03:55;;;;;;;;;7.00;6.75;;;;;14.27;77.36;98926.03;5035712;28;45468;-81
2023/05/15 00:06:20;;;;;;;;;7.25;7.25;;;;;14.28;77.40;98921.59;5048223;28;46603;-81
2023/05/15 00:08:46;;;;;;;;;7.25;7.25;;;;;14.29;77.32;98920.63;5019582;28;45319;-81
2023/05/15 00:11:11;;;;;;;;;8.25;8.25;;;;;14.31;76.80;98930.22;5019987;28;45453;-82
2023/05/15 00:13:37;;;;;;;;;8.25;8.00;;;;;14.30;76.64;98925.00;5051200;28;45385;-82
2023/05/15 00:16:05;;;;;;;;;8.75;8.75;;;;;14.28;75.97;98927.75;5046793;28;46503;-84
2023/05/15 00:18:30;;;;;;;;;7.50;7.50;;;;;14.27;75.89;98928.69;5043776;28;45519;-82
2023/05/15 00:20:56;;;;;;;;;9.75;9.25;;;;;14.26;76.31;98916.38;5048563;28;45472;-82
2023/05/15 00:23:21;;;;;;;;;8.50;8.50;;;;;14.26;76.28;98921.66;5039844;28;45405;-79
2023/05/15 00:25:46;;;;;;;;;11.50;9.50;;;;;14.26;76.24;98923.47;5047642;28;46591;-83
2023/05/15 00:28:12;;;;;;;;;7.00;7.00;;;;;14.24;76.52;98926.19;5040486;28;45521;-82
2023/05/15 00:30:37;;;;;;;;;7.00;7.00;;;;;14.21;76.71;98929.06;5056446;28;45453;-83
2023/05/15 00:33:03;;;;;;;;;10.50;10.50;;;;;14.22;76.90;98922.81;5024030;28;45347;-82
2023/05/15 00:35:28;;;;;;;;;10.50;8.50;;;;;14.21;76.84;98923.75;5046149;28;45994;-82
2023/05/15 00:37:54;;;;;;;;;8.50;8.50;;;;;14.22;76.31;98916.66;5055448;28;45474;-82
2023/05/15 00:40:24;;;;;;;;;9.00;8.25;;;;;14.20;76.76;98929.16;5044041;28;45510;-82
2023/05/15 00:42:51;;;;;;;;;8.75;8.00;;;;;14.19;76.78;98908.88;5022053;28;45551;-82
2023/05/15 00:45:18;;;;;;;;;9.25;8.50;;;;;14.17;76.61;98913.41;5028020;28;48077;-82
2023/05/15 00:47:44;;;;;;;;;5.20;5.20;;;;;14.16;76.97;98919.66;5040310;28;45503;-82
2023/05/15 00:50:11;;;;;;;;;9.00;9.00;;;;;14.17;77.06;98911.63;5027626;28;45462;-82
2023/05/15 00:52:37;;;;;;;;;6.00;6.00;;;;;14.17;76.83;98914.25;5053233;28;45254;-82
2023/05/15 00:55:03;;;;;;;;;7.75;7.75;;;;;14.20;77.01;98910.59;5036320;28;46330;-82
2023/05/15 00:57:30;;;;;;;;;9.40;8.00;;;;;14.23;78.03;98907.75;5019671;28;45453;-82
2023/05/15 00:59:56;;;;;;;;;9.00;8.25;;;;;14.26;77.93;98912.84;5046965;28;45448;-82
2023/05/15 01:02:22;;;;;;;;;8.75;7.50;;;;;14.26;76.66;98916.38;5052279;28;45575;-83
2023/05/15 01:04:48;;;;;;;;;9.00;9.00;;;;;14.28;77.53;98909.19;5046818;28;45510;-80
2023/05/15 01:07:14;;;;;;;;;11.00;9.00;;;;;14.31;77.95;98905.50;5050378;28;45356;-83
2023/05/15 01:09:44;;;;;;;;;8.75;7.00;;;;;14.31;78.41;98908.16;5047443;28;45336;-82
2023/05/15 01:12:10;;;;;;;;;8.75;8.25;;;;;14.32;78.28;98908.06;5042843;28;45448;-82
2023/05/15 01:14:36;;;;;;;;;7.00;7.00;;;;;14.35;77.33;98909.69;5027685;28;47283;-83
2023/05/15 01:17:01;;;;;;;;;8.75;8.75;;;;;14.37;76.93;98897.19;5049596;28;45473;-82
2023/05/15 01:19:27;;;;;;;;;9.50;9.50;;;;;14.41;77.67;98906.69;5047166;28;45469;-82
2023/05/15 01:22:30;;;;;;;;;7.25;7.00;;;;;14.42;76.67;98911.03;5038735;28;45463;-82
2023/05/15 01:25:32;;;;;;;;;8.50;8.50;;;;;14.39;77.09;98911.22;5049782;28;46055;-83
2023/05/15 01:28:05;;;;;;;;;7.00;6.20;;;;;14.33;76.42;98912.41;5041155;28;45321;-82
2023/05/15 01:30:37;;;;;;;;;10.25;8.00;;;;;14.32;76.23;98920.47;5020374;28;45307;-82
2023/05/15 01:33:11;;;;;;;;;10.00;9.00;;;;;14.27;75.98;98907.47;5027428;28;45674;-82
2023/05/15 01:35:44;;;;;;;;;10.00;8.75;;;;;14.25;75.94;98914.66;5045671;28;46331;-83
2023/05/15 01:38:39;;;;;;;;;8.00;8.00;;;;;14.21;75.79;98923.75;5018414;28;45535;-82
2023/05/15 01:41:34;;;;;;;;;10.75;10.75;;;;;14.17;76.16;98927.50;5030691;28;45402;-84
2023/05/15 01:44:30;;;;;;;;;9.75;9.50;;;;;14.15;75.66;98913.50;5048019;28;45612;-84
2023/05/15 01:47:04;;;;;;;;;11.00;11.00;;;;;14.13;75.81;98920.69;5045284;28;46146;-83
2023/05/15 01:49:31;;;;;;;;;13.25;12.25;;;;;14.07;75.89;98923.69;5053012;28;45468;-84
2023/05/15 01:52:13;;;;;;;;;9.25;9.25;;;;;14.06;76.21;98937.91;5043703;28;45489;-83
2023/05/15 01:54:39;;;;;;;;;8.50;8.25;;;;;14.00;76.76;98938.22;5030247;28;45260;-84
2023/05/15 01:57:07;;;;;;;;;11.25;10.25;;;;;13.95;76.35;98914.63;5040963;28;46481;-82
2023/05/15 01:59:34;;;;;;;;;12.25;12.25;;;;;13.95;76.94;98908.47;5025159;28;45349;-84
2023/05/15 02:02:03;;;;;;;;;10.25;10.25;;;;;13.90;76.92;98910.56;5041923;28;45426;-83
2023/05/15 02:04:29;;;;;;;;;12.25;11.00;;;;;13.88;76.95;98905.34;5048578;28;45500;-84
2023/05/15 02:06:55;;;;;;;;;15.00;12.75;;;;;13.90;77.12;98911.41;5049256;28;45547;-84
2023/05/15 02:09:22;;;;;;;;;11.00;10.75;;;;;13.87;76.81;98908.06;5041582;28;45494;-82
2023/05/15 02:11:48;;;;;;;;;10.00;9.50;;;;;13.85;77.13;98905.50;5042092;28;45386;-83
2023/05/15 02:14:16;;;;;;;;;12.50;12.00;;;;;13.83;77.66;98915.34;5048174;28;45547;-83
2023/05/15 02:16:41;;;;;;;;;14.00;14.00;;;;;13.82;77.74;98907.47;5030987;28;47561;-84
2023/05/15 02:19:07;;;;;;;;;10.00;9.00;;;;;13.81;77.93;98913.72;5025312;28;45689;-83
2023/05/15 02:21:33;;;;;;;;;10.00;9.75;;;;;13.77;77.56;98906.88;5055053;28;45290;-82
2023/05/15 02:23:59;;;;;;;;;9.75;9.00;;;;;13.78;77.96;98908.59;5034581;28;45773;-84
2023/05/15 02:26:50;;;;;;;;;9.00;9.00;;;;;13.74;78.12;98907.06;5030490;28;47778;-82
2023/05/15 02:29:37;;;;;;;;;11.50;10.25;;;;;13.76;78.09;98932.50;5034048;28;45504;-82
2023/05/15 02:32:15;;;;;;;;;11.00;9.75;;;;;13.77;77.81;98913.03;5037467;28;45318;-82
2023/05/15 02:34:54;;;;;;;;;14.00;12.75;;;;;13.77;78.09;98913.03;5023320;28;45546;-83
2023/05/15 02:37:30;;;;;;;;;12.50;12.50;;;;;13.78;78.38;98930.63;5026622;28;46598;-82
2023/05/15 02:39:58;;;;;;;;;13.25;13.25;;;;;13.78;78.94;98914.72;5048882;28;45331;-83
2023/05/15 02:42:25;;;;;;;;;10.50;9.75;;;;;13.79;80.19;98916.44;5047864;28;45230;-83
2023/05/15 02:44:53;;;;;;;;;12.25;11.00;;;;;13.79;80.29;98916.44;5023778;28;45595;-83
2023/05/15 02:47:20;;;;;;;;;9.75;8.75;;;;;13.79;78.63;98911.16;5042483;28;45601;-82
2023/05/15 02:49:46;;;;;;;;;12.00;12.00;;;;;13.79;79.27;98913.78;5048490;28;45321;-83
2023/05/15 02:52:12;;;;;;;;;10.25;9.75;;;;;13.77;79.39;98913.03;5030167;28;45385;-83
2023/05/15 02:54:38;;;;;;;;;13.00;13.00;;;;;13.76;78.88;98906.00;5024177;28;45323;-83
2023/05/15 02:57:03;;;;;;;;;11.00;11.00;;;;;13.76;78.96;98905.16;5055173;28;46566;-84
2023/05/15 02:59:29;;;;;;;;;16.00;12.75;;;;;13.77;78.73;98906.88;5040767;28;45417;-83
2023/05/15 03:01:54;;;;;;;;;14.00;12.50;;;;;13.76;79.05;98906.00;5041348;28;45354;-83
2023/05/15 03:04:20;;;;;;;;;15.75;14.50;;;;;13.75;78.44;98906.94;5041705;28;45504;-82
2023/05/15 03:06:45;;;;;;;;;13.00;13.00;;;;;13.75;78.83;98900.81;5055168;28;45440;-83
2023/05/15 03:09:10;;;;;;;;;18.50;14.00;;;;;13.74;78.88;98905.25;5048878;28;45442;-83
2023/05/15 03:11:36;;;;;;;;;10.75;10.75;;;;;13.73;79.72;98906.22;5046906;28;45373;-84
2023/05/15 03:14:01;;;;;;;;;14.75;14.00;;;;;13.68;79.19;98904.75;5040919;28;45588;-83
2023/05/15 03:16:27;;;;;;;;;12.00;12.00;;;;;13.67;79.16;98897.75;5036560;28;47364;-82
2023/05/15 03:18:53;;;;;;;;;14.00;13.50;;;;;13.65;79.30;98896.97;5041223;28;45425;-83
2023/05/15 03:21:18;;;;;;;;;11.50;11.50;;;;;13.64;79.40;98901.41;5054350;28;45366;-82
2023/05/15 03:23:44;;;;;;;;;6.50;5.50;;;;;13.62;79.28;98895.34;5022126;28;45316;-82
2023/05/15 03:26:10;;;;;;;;;15.75;13.75;;;;;13.62;79.82;98895.34;5020861;28;48027;-82
2023/05/15 03:28:36;;;;;;;;;18.50;16.00;;;;;13.58;79.93;98899.09;5048271;28;45196;-83
2023/05/15 03:31:03;;;;;;;;;18.00;17.00;;;;;13.56;79.63;98922.19;5055127;28;45281;-82
2023/05/15 03:33:29;;;;;;;;;11.50;11.50;;;;;13.54;80.19;98901.09;5016974;28;45397;-82
2023/05/15 03:35:55;;;;;;;;;18.00;15.75;;;;;13.49;80.09;98903.13;5046030;28;46870;-82
2023/05/15 03:38:20;;;;;;;;;17.50;15.50;;;;;13.53;80.20;98902.03;5047683;28;45368;-83
2023/05/15 03:40:45;;;;;;;;;14.25;14.25;;;;;13.51;80.37;98908.34;5047399;28;45362;-82
2023/05/15 03:43:11;;;;;;;;;20.75;18.75;;;;;13.49;80.37;98905.78;5041076;28;45542;-83
2023/05/15 03:45:37;;;;;;;;;15.75;15.75;;;;;13.51;80.33;98901.25;5041291;28;46454;-83
2023/05/15 03:48:03;;;;;;;;;14.75;13.75;;;;;13.50;80.36;98911.94;5029647;28;45502;-82
2023/05/15 03:50:29;;;;;;;;;18.00;17.50;;;;;13.49;80.47;98924.31;5047239;28;45469;-83
2023/05/15 03:52:54;;;;;;;;;19.50;19.00;;;;;13.52;80.46;98915.34;5040961;28;45346;-83
2023/05/15 03:55:20;;;;;;;;;15.25;15.25;;;;;13.49;80.65;98913.72;5019296;28;46037;-83
2023/05/15 03:57:45;;;;;;;;;17.25;16.50;;;;;13.47;80.48;98899.69;5028293;28;45599;-81
2023/05/15 04:00:11;;;;;;;;;16.75;16.75;;;;;13.44;80.63;98894.56;5046393;28;45676;-83
2023/05/15 04:02:37;;;;;;;;;19.25;18.50;;;;;13.45;80.65;98898.06;5039804;28;45552;-83
2023/05/15 04:05:04;;;;;;;;;16.50;15.50;;;;;13.45;80.43;98900.72;5023752;28;48096;-82
2023/05/15 04:07:31;;;;;;;;;17.50;16.25;;;;;13.46;80.71;98902.44;5047152;28;45348;-83
2023/05/15 04:10:00;;;;;;;;;15.50;14.75;;;;;13.45;80.76;98903.38;5015819;28;45830;-82
2023/05/15 04:12:29;;;;;;;;;14.75;14.00;;;;;13.43;81.12;98903.44;5046231;28;45452;-83
2023/05/15 04:15:17;;;;;;;;;21.00;20.50;;;;;13.44;81.09;98906.97;5040859;28;46119;-83
2023/05/15 04:17:44;;;;;;;;;18.50;16.50;;;;;13.44;80.77;98901.66;5043815;28;45409;-82
2023/05/15 04:20:11;;;;;;;;;20.25;20.25;;;;;13.41;81.76;98915.91;5050718;28;45263;-82
2023/05/15 04:22:36;;;;;;;;;21.75;18.25;;;;;13.42;81.42;98922.94;5033522;28;45349;-82
2023/05/15 04:25:02;;;;;;;;;16.75;16.75;;;;;13.42;81.24;98916.78;5033292;28;45422;-82
2023/05/15 04:27:27;;;;;;;;;15.50;14.25;;;;;13.41;81.48;98920.34;5043280;28;45564;-82
2023/05/15 04:29:52;;;;;;;;;18.25;17.75;;;;;13.44;81.72;98914.91;5034302;28;45464;-82
2023/05/15 04:32:18;;;;;;;;;17.00;16.50;;;;;13.44;81.14;98921.06;5027399;28;45526;-82
2023/05/15 04:34:43;;;;;;;;;16.75;16.25;;;;;13.45;81.56;98919.25;5043724;28;46536;-83
2023/05/15 04:37:10;;;;;;;;;16.00;16.00;;;;;13.44;81.25;98918.41;5057485;28;45293;-82
2023/05/15 04:39:36;;;;;;;;;18.00;17.00;;;;;13.45;81.36;98922.75;5043851;28;45377;-82
2023/05/15 04:42:02;;;;;;;;;20.75;18.75;;;;;13.46;81.50;98923.63;5028542;28;45487;-82
2023/05/15 04:44:27;;;;;;;;;16.25;14.25;;;;;13.45;81.13;98932.50;5050412;28;46150;-82
2023/05/15 04:46:52;;;;;;;;;15.75;14.50;;;;;13.44;81.67;98922.84;5029202;28;45397;-82
2023/05/15 04:49:18;;;;;;;;;20.75;19.00;;;;;13.44;81.99;98934.28;5043632;28;45397;-83
2023/05/15 04:51:43;;;;;;;;;15.25;15.25;;;;;13.44;81.64;98926.34;5046388;28;45354;-82
2023/05/15 04:54:09;;;;;;;;;14.75;14.75;;;;;13.46;81.88;98931.56;5031723;28;46747;-83
2023/05/15 04:56:35;;;;;;;;;18.00;14.00;;;;;13.47;81.53;98912.09;5036709;28;45433;-82
2023/05/15 04:59:00;;;;;;;;;16.50;15.75;;;;;13.48;81.16;98927.91;5044827;28;45441;-82
2023/05/15 05:01:26;;;;;;;;;13.75;12.25;;;;;13.49;80.92;98928.75;5026155;28;45305;-82
2023/05/15 05:03:51;;;;;;;;;17.50;17.00;;;;;13.53;80.66;98917.06;5044620;28;45414;-82
2023/05/15 05:06:17;;;;;;;;;14.75;14.50;;;;;13.55;81.05;98916.03;5046861;28;45355;-83
2023/05/15 05:08:42;;;;;;;;;15.00;13.75;;;;;13.57;80.35;98921.25;5037557;28;45429;-82
2023/05/15 05:11:07;;;;;;;;;13.25;13.25;;;;;13.58;80.88;98907.91;5047306;28;45492;-83
2023/05/15 05:13:33;;;;;;;;;15.25;15.25;;;;;13.59;80.82;98927.28;5031163;28;45453;-84
2023/05/15 05:15:58;;;;;;;;;18.75;17.75;;;;;13.60;80.36;98921.91;5035685;28;45383;-82
2023/05/15 05:18:23;;;;;;;;;25.75;22.75;;;;;13.61;80.27;98928.06;5031688;28;45274;-83
2023/05/15 05:20:49;;;;;;;;;17.00;17.00;;;;;13.63;80.77;98950.03;5034582;28;46160;-83
2023/05/15 05:23:15;;;;;;;;;16.25;15.75;;;;;13.63;81.04;98936.78;5035447;28;46244;-83
2023/05/15 05:25:40;;;;;;;;;14.25;13.75;;;;;13.64;80.92;98927.91;5044637;28;45527;-82
2023/05/15 05:28:05;;;;;;;;;22.00;20.25;;;;;13.63;80.90;98939.44;5035155;28;45454;-82
2023/05/15 05:30:31;;;;;;;;;18.00;17.50;;;;;13.63;80.55;98926.19;5045396;28;45566;-82
2023/05/15 05:32:56;;;;;;;;;16.50;15.75;;;;;13.67;80.50;98926.88;5050287;28;45418;-81
2023/05/15 05:35:21;;;;;;;;;22.00;22.00;;;;;13.68;80.62;98933.88;5049487;28;45329;-82
2023/05/15 05:37:47;;;;;;;;;21.50;20.50;;;;;13.71;80.62;98917.84;5030826;28;45325;-82
2023/05/15 05:40:12;;;;;;;;;17.75;17.00;;;;;13.73;80.43;98922.09;5025214;28;45778;-82
2023/05/15 05:42:38;;;;;;;;;16.00;15.50;;;;;13.77;80.18;98922.75;5022837;28;45506;-82
2023/05/15 05:45:05;;;;;;;;;19.25;18.25;;;;;13.83;79.86;98919.78;5046422;28;45371;-81
2023/05/15 05:47:30;;;;;;;;;17.75;17.75;;;;;13.88;79.64;98915.94;5049154;28;45356;-82
2023/05/15 05:49:56;;;;;;;;;23.25;23.00;;;;;13.97;79.50;98919.84;5035522;28;45403;-82
2023/05/15 05:52:21;;;;;;;;;22.00;19.00;;;;;14.04;78.78;98913.28;5036792;28;46211;-82
2023/05/15 05:54:47;;;;;;;;;20.50;19.00;;;;;14.10;78.77;98922.66;5028757;28;45423;-82
2023/05/15 05:57:13;;;;;;;;;18.75;18.75;;;;;14.15;77.96;98912.63;5050494;28;45337;-82
2023/05/15 05:59:38;;;;;;;;;20.25;20.25;;;;;14.23;77.93;98899.81;5047040;28;45472;-82
2023/05/15 06:02:04;;;;;;;;;16.00;16.00;;;;;14.28;77.07;98892.41;5037106;28;45503;-82
2023/05/15 06:04:32;;;;;;;;;20.25;19.25;;;;;14.37;76.77;98881.28;5033609;28;45371;-82
2023/05/15 06:06:57;;;;;;;;;12.50;11.50;;;;;14.38;77.09;98880.34;5048374;28;45259;-82
2023/05/15 06:09:23;;;;;;;;;17.75;17.00;;;;;14.45;76.68;98888.78;5042707;28;45422;-82
2023/05/15 06:11:48;;;;;;;;;21.00;19.50;;;;;14.47;76.72;98879.81;5041189;28;45519;-81
2023/05/15 06:14:13;;;;;;;;;20.00;20.00;;;;;14.48;76.51;98888.63;5047381;28;45443;-84
2023/05/15 06:16:39;;;;;;;;;16.00;16.00;;;;;14.47;76.25;98886.91;5035806;28;45822;-83
2023/05/15 06:19:04;;;;;;;;;24.25;21.00;;;;;14.45;76.52;98880.84;5047410;28;45415;-81
2023/05/15 06:21:30;;;;;;;;;21.25;21.25;;;;;14.45;76.06;98887.00;5034594;28;45489;-83
2023/05/15 06:23:55;;;;;;;;;20.50;18.25;;;;;14.40;76.42;98905.00;5042117;28;45487;-82
2023/05/15 06:26:21;;;;;;;;;18.50;18.50;;;;;14.40;76.51;98909.41;5022744;28;45273;-81
2023/05/15 06:28:46;;;;;;;;;23.25;20.50;;;;;14.37;76.75;98906.94;5033324;28;45390;-81
2023/05/15 06:31:12;;;;;;;;;20.50;20.50;;;;;14.35;76.94;98892.91;5048213;28;45382;-83
2023/05/15 06:33:37;;;;;;;;;28.00;25.75;;;;;14.35;77.08;98892.91;5035037;28;45251;-82
2023/05/15 06:36:02;;;;;;;;;23.25;22.00;;;;;14.37;76.93;98894.53;5034737;28;45381;-83
2023/05/15 06:38:28;;;;;;;;;19.50;19.50;;;;;14.37;77.01;98886.59;5048148;28;45539;-81
2023/05/15 06:40:53;;;;;;;;;20.00;18.75;;;;;14.37;76.25;98889.25;5046916;28;46253;-83
2023/05/15 06:43:18;;;;;;;;;18.00;17.25;;;;;14.37;76.24;98883.06;5041917;28;45309;-83
2023/05/15 06:45:44;;;;;;;;;18.50;18.50;;;;;14.40;75.74;98904.13;5042334;28;45630;-84
2023/05/15 06:48:10;;;;;;;;;22.25;20.75;;;;;14.39;76.25;98911.22;5053658;28;45255;-83
2023/05/15 06:50:35;;;;;;;;;24.25;23.75;;;;;14.39;75.11;98884.69;5020903;28;48108;-83
2023/05/15 06:53:01;;;;;;;;;17.00;16.75;;;;;14.43;75.55;98893.34;5029397;28;45494;-83
2023/05/15 06:55:26;;;;;;;;;19.00;19.00;;;;;14.46;75.50;98894.00;5045213;28;45528;-83
2023/05/15 06:57:52;;;;;;;;;22.00;20.75;;;;;14.50;75.20;98884.94;5022492;28;45325;-84
2023/05/15 07:00:17;;;;;;;;;21.00;19.50;;;;;14.54;75.54;98893.56;5023648;28;47801;-84
2023/05/15 07:02:43;;;;;;;;;20.75;20.75;;;;;14.59;74.55;98892.31;5054296;28;45515;-84
2023/05/15 07:05:09;;;;;;;;;20.25;19.75;;;;;14.61;74.72;98885.13;5041450;28;45329;-84
2023/05/15 07:07:35;;;;;;;;;21.25;21.00;;;;;14.68;74.35;98890.94;5035712;28;45389;-84
2023/05/15 07:10:00;;;;;;;;;21.50;21.00;;;;;14.72;74.38;98886.31;5040744;28;46149;-83
2023/05/15 07:12:26;;;;;;;;;23.50;22.25;;;;;14.73;74.81;98880.91;5033851;28;45384;-83
2023/05/15 07:14:51;;;;;;;;;21.75;20.25;;;;;14.78;73.72;98902.69;5034808;28;45445;-84
2023/05/15 07:17:18;;;;;;;;;19.50;19.50;;;;;14.79;73.85;98891.13;5030076;28;45406;-83
2023/05/15 07:19:43;;;;;;;;;15.75;14.75;;;;;14.80;73.79;98887.53;5034790;28;45642;-84
2023/05/15 07:22:09;;;;;;;;;16.50;16.50;;;;;14.81;73.25;98878.63;5040589;28;45269;-83
2023/05/15 07:24:34;;;;;;;;;24.25;22.50;;;;;14.83;72.95;98863.47;5033382;28;45465;-84
2023/05/15 07:27:00;;;;;;;;;23.25;22.25;;;;;14.85;73.28;98876.63;5029145;28;45531;-83
2023/05/15 07:29:26;;;;;;;;;22.75;21.25;;;;;14.89;73.56;98873.72;5047062;28;46102;-84
2023/05/15 07:31:51;;;;;;;;;27.67;25.67;;;;;14.97;72.86;98870.56;5041358;28;45337;-84
2023/05/15 07:34:17;;;;;;;;;23.75;22.00;;;;;14.98;72.88;98869.63;5041964;28;45476;-83
2023/05/15 07:36:42;;;;;;;;;20.00;18.25;;;;;15.04;71.93;98871.06;5028868;28;45919;-83
2023/05/15 07:39:08;;;;;;;;;26.00;26.00;;;;;15.05;71.63;98880.72;5047941;28;46572;-84
2023/05/15 07:41:33;;;;;;;;;24.50;24.00;;;;;15.10;71.73;98875.97;5033141;28;45314;-83
2023/05/15 07:43:58;;;;;;;;;24.00;23.75;;;;;15.19;72.27;98883.38;5034706;28;45402;-83
2023/05/15 07:46:24;;;;;;;;;24.75;24.25;;;;;15.22;71.52;98865.44;5047258;28;45452;-83
2023/05/15 07:48:50;;;;;;;;;24.25;23.50;;;;;15.26;71.18;98889.97;5028799;28;47392;-83
2023/05/15 07:51:15;;;;;;;;;26.00;25.67;;;;;15.21;70.70;98862.88;5040731;28;45283;-83
2023/05/15 07:53:41;;;;;;;;;30.67;29.33;;;;;15.12;70.46;98874.91;5041528;28;45349;-83
2023/05/15 07:56:06;;;;;;;;;21.50;20.75;;;;;15.05;70.80;98865.66;5047274;28;46309;-83
2023/05/15 07:58:34;;;;;;;;;24.50;22.00;;;;;15.05;71.46;98865.66;5034249;28;46557;-83
2023/05/15 08:00:59;;;;;;;;;22.33;22.33;;;;;15.04;71.49;98871.06;5029529;28;45298;-83
2023/05/15 08:03:25;;;;;;;;;22.75;21.75;;;;;15.05;71.40;98868.31;5046510;28;45397;-83
2023/05/15 08:05:50;;;;;;;;;28.75;27.75;;;;;15.02;71.25;98866.69;5041786;28;45354;-82
2023/05/15 08:08:16;;;;;;;;;28.50;26.75;;;;;15.02;71.62;98863.19;5045237;28;46119;-83
2023/05/15 08:10:41;;;;;;;;;27.00;25.50;;;;;14.99;71.20;98848.28;5050365;28;45414;-83
2023/05/15 08:13:06;;;;;;;;;22.50;21.00;;;;;15.00;70.98;98855.31;5048787;28;45378;-85
2023/05/15 08:15:32;;;;;;;;;26.25;24.25;;;;;15.03;71.31;98859.59;5043789;28;45303;-83
2023/05/15 08:17:57;;;;;;;;;23.50;22.50;;;;;15.02;71.67;98858.72;5045974;28;45443;-82
2023/05/15 08:20:22;;;;;;;;;28.75;25.25;;;;;15.01;71.95;98859.66;5055630;28;45517;-82
2023/05/15 08:22:48;;;;;;;;;31.25;27.00;;;;;15.01;71.76;98850.84;5045870;28;45923;-83
2023/05/15 08:25:13;;;;;;;;;26.00;22.75;;;;;15.01;71.43;98857.00;5050291;28;45537;-82
2023/05/15 08:27:38;;;;;;;;;30.00;29.33;;;;;15.00;71.64;98852.66;5048736;28;46275;-83
2023/05/15 08:30:05;;;;;;;;;25.75;24.25;;;;;14.94;71.45;98841.56;5043405;28;45529;-83
2023/05/15 08:32:30;;;;;;;;;29.33;26.67;;;;;14.93;71.17;98855.78;5028133;28;45459;-83
2023/05/15 08:34:56;;;;;;;;;26.00;25.50;;;;;14.92;70.53;98872.66;5053218;28;45453;-82
2023/05/15 08:37:22;;;;;;;;;22.25;18.75;;;;;14.93;70.75;98858.44;5027760;28;47278;-82
2023/05/15 08:39:47;;;;;;;;;25.00;24.75;;;;;14.92;70.15;98876.16;5050389;28;45557;-83
2023/05/15 08:42:23;;;;;;;;;25.50;25.50;;;;;14.99;71.25;98879.28;5030489;28;45395;-82
2023/05/15 08:44:49;;;;;;;;;21.00;19.67;;;;;15.08;70.66;98864.63;5043463;28;45291;-81
2023/05/15 08:47:15;;;;;;;;;26.75;25.50;;;;;15.12;70.89;98835.09;5044166;28;45621;-83
2023/05/15 08:50:05;;;;;;;;;32.00;24.33;;;;;15.22;70.45;98864.59;5031424;28;45378;-82
2023/05/15 08:52:34;;;;;;;;;33.33;31.67;;;;;15.27;70.75;98839.44;5049978;28;45403;-82
2023/05/15 08:55:01;;;;;;;;;28.50;26.00;;;;;15.31;70.40;98851.56;5046655;28;45384;-83
2023/05/15 08:57:27;;;;;;;;;25.33;25.33;;;;;15.33;70.43;98838.19;5021749;28;48405;-82
2023/05/15 08:59:53;;;;;;;;;35.67;32.33;;;;;15.34;69.97;98835.44;5046754;28;45433;-83
2023/05/15 09:02:19;;;;;;;;;26.25;25.25;;;;;15.39;69.21;98843.13;5042551;28;45465;-82
2023/05/15 09:04:45;;;;;;;;;27.00;26.00;;;;;15.46;69.44;98825.81;5046651;28;45389;-83
2023/05/15 09:07:11;;;;;;;;;23.00;22.50;;;;;15.58;68.32;98837.50;5049600;28;46789;-83
2023/05/15 09:09:38;;;;;;;;;26.75;26.00;;;;;15.63;67.83;98841.56;5045617;28;45295;-83
2023/05/15 09:12:05;;;;;;;;;26.50;24.50;;;;;15.69;68.14;98819.91;5042620;28;45346;-82
2023/05/15 09:14:31;;;;;;;;;25.00;23.00;;;;;15.74;67.66;98832.91;5046348;28;45459;-83
2023/05/15 09:16:56;;;;;;;;;24.50;24.50;;;;;15.76;67.48;98830.97;5049024;28;45506;-83
2023/05/15 09:19:22;;;;;;;;;25.25;22.00;;;;;15.77;67.63;98822.03;5045644;28;45702;-81
2023/05/15 09:21:48;;;;;;;;;23.50;21.00;;;;;15.80;67.67;98831.63;5043157;28;45492;-83
2023/05/15 09:24:24;;;;;;;;;24.50;23.50;;;;;15.84;67.43;98827.81;5028544;28;45623;-82
2023/05/15 09:27:19;;;;;;;;;22.75;20.50;;;;;15.91;67.12;98837.09;5052874;28;45450;-83
2023/05/15 09:29:45;;;;;;;;;30.75;29.75;;;;;15.97;66.60;98826.03;5019311;28;45526;-83
2023/05/15 09:32:14;;;;;;;;;24.75;24.00;;;;;16.03;66.82;98828.31;5044749;28;45442;-83
2023/05/15 09:34:41;;;;;;;;;20.50;20.50;;;;;16.10;66.60;98823.41;5042632;28;45333;-83
2023/05/15 09:37:08;;;;;;;;;20.00;19.50;;;;;16.09;65.53;98845.66;5028681;28;47289;-83
2023/05/15 09:39:43;;;;;;;;;26.25;24.50;;;;;16.09;65.96;98813.75;5047642;28;45795;-83
2023/05/15 09:42:11;;;;;;;;;25.50;25.50;;;;;16.07;66.19;98819.19;5047442;28;45421;-83
2023/05/15 09:44:43;;;;;;;;;29.50;27.25;;;;;16.09;66.45;98819.91;5042743;28;45344;-83
2023/05/15 09:47:13;;;;;;;;;19.00;19.00;;;;;16.11;66.21;98820.66;5043780;28;45775;-83
2023/05/15 09:49:39;;;;;;;;;24.50;23.75;;;;;16.17;66.73;98795.44;5031294;28;45394;-82
2023/05/15 09:52:08;;;;;;;;;17.00;14.50;;;;;16.26;65.69;98814.28;5029921;28;45416;-82
2023/05/15 09:54:35;;;;;;;;;23.25;22.75;;;;;16.34;65.61;98784.50;5042317;28;45536;-83
2023/05/15 09:57:10;;;;;;;;;27.50;26.50;;;;;16.44;65.18;98806.00;5024533;28;46145;-83
2023/05/15 09:59:35;;;;;;;;;23.25;20.25;;;;;16.48;65.51;98786.22;5030425;28;45442;-83
2023/05/15 10:02:00;;;;;;;;;28.25;26.50;;;;;16.61;64.78;98795.03;5055395;28;45295;-83
2023/05/15 10:04:32;;;;;;;;;22.75;19.00;;;;;16.69;65.22;98784.75;5042401;28;45598;-82
2023/05/15 10:06:59;;;;;;;;;23.00;23.00;;;;;16.85;65.29;98768.53;5053806;28;45491;-83
2023/05/15 10:09:29;;;;;;;;;23.75;20.75;;;;;17.01;63.64;98778.00;5043415;28;45418;-83
2023/05/15 10:11:57;;;;;;;;;21.75;20.00;;;;;17.06;63.14;98773.19;5040261;28;45314;-83
2023/05/15 10:14:25;;;;;;;;;21.00;19.00;;;;;17.13;63.86;98773.59;5035850;28;45516;-82
2023/05/15 10:16:52;;;;;;;;;18.75;18.75;;;;;17.23;63.01;98763.13;5037685;28;45510;-82
2023/05/15 10:19:22;;;;;;;;;17.20;16.00;;;;;17.30;62.59;98778.53;5046512;28;45284;-83
2023/05/15 10:21:47;;;;;;;;;17.50;17.25;;;;;17.41;62.91;98749.31;5036567;28;45543;-82
2023/05/15 10:24:15;;;;;;;;;21.75;20.25;;;;;17.53;62.16;98749.34;5027168;28;45534;-82
2023/05/15 10:26:42;;;;;;;;;18.50;16.25;;;;;17.60;61.02;98762.09;5048045;28;46814;-82
2023/05/15 10:29:09;;;;;;;;;18.00;17.00;;;;;17.61;61.06;98749.63;5043122;28;45192;-82
2023/05/15 10:31:35;;;;;;;;;20.50;17.00;;;;;17.60;60.30;98746.09;5041679;28;45335;-83
2023/05/15 10:34:02;;;;;;;;;20.75;18.75;;;;;17.62;60.91;98738.84;5045352;28;45584;-83
2023/05/15 10:36:28;;;;;;;;;17.00;14.50;;;;;17.66;61.23;98752.84;5030167;28;47036;-82
2023/05/15 10:38:54;;;;;;;;;20.00;19.00;;;;;17.66;61.08;98745.69;5044644;28;45469;-82
2023/05/15 10:41:21;;;;;;;;;20.50;16.75;;;;;17.65;60.82;98746.66;5023000;28;45405;-83
2023/05/15 10:43:52;;;;;;;;;14.00;13.75;;;;;17.62;60.38;98740.66;5054198;28;45539;-82
2023/05/15 10:46:18;;;;;;;;;19.25;19.25;;;;;17.52;59.42;98743.16;5051430;28;45514;-82
2023/05/15 10:48:44;;;;;;;;;17.75;17.75;;;;;17.48;61.00;98724.84;5043772;28;45428;-82
2023/05/15 10:51:26;;;;;;;;;17.25;15.75;;;;;17.45;60.39;98728.59;5023030;28;45380;-83
2023/05/15 10:53:52;;;;;;;;;12.75;12.00;;;;;17.43;59.37;98734.03;5020548;28;45449;-83
2023/05/15 10:56:18;;;;;;;;;13.75;11.00;;;;;17.42;60.17;98718.19;5046424;28;45658;-83
2023/05/15 10:58:50;;;;;;;;;15.25;14.50;;;;;17.41;59.77;98745.78;5034906;28;45387;-83
2023/05/15 11:01:30;;;;;;;;;16.00;15.00;;;;;17.40;60.32;98760.09;5054724;28;45353;-82
2023/05/15 11:04:16;;;;;;;;;15.50;14.50;;;;;17.37;60.46;98731.00;5036380;28;45262;-84
2023/05/15 11:06:44;;;;;;;;;8.50;6.50;;;;;17.37;60.69;98741.66;5024020;28;48097;-83
2023/05/15 11:09:35;;;;;;;;;17.50;14.00;;;;;17.40;61.16;98734.28;5047104;28;45506;-82
2023/05/15 11:12:02;;;;;;;;;22.50;19.75;;;;;17.37;60.48;98741.66;5037054;28;45331;-83
2023/05/15 11:14:36;;;;;;;;;18.00;17.00;;;;;17.32;61.07;98733.97;5044159;28;45652;-82
2023/05/15 11:17:06;;;;;;;;;15.00;14.50;;;;;17.31;60.24;98736.75;5029379;28;47153;-83
2023/05/15 11:19:54;;;;;;;;;14.25;14.00;;;;;17.34;60.05;98739.19;5045550;28;45563;-83
2023/05/15 11:22:31;;;;;;;;;19.00;16.50;;;;;17.37;59.28;98731.84;5029485;28;45500;-82